sensor_id;sensor_type;location;lat;lon;timestamp;P1;durP1;ratioP1;P2;durP2;ratioP2
60454;SDS011;54989;53.398;6.564;2022-08-19T00:01:56;1.05;;;0.95;;
60454;SDS011;54989;53.398;6.564;2022-08-19T00:04:26;0.95;;;0.90;;
60454;SDS011;54989;53.398;6.564;2022-08-19T00:06:56;0.95;;;0.95;;
60454;SDS011;54989;53.398;6.564;2022-08-19T00:09:24;0.90;;;0.90;;
60454;SDS011;54989;53.398;6.564;2022-08-19T00:11:53;1.15;;;1.05;;
60454;SDS011;54989;53.398;6.564;2022-08-19T00:14:22;0.80;;;0.80;;
60454;SDS011;54989;53.398;6.564;2022-08-19T00:16:51;1.00;;;0.90;;
60454;SDS011;54989;53.398;6.564;2022-08-19T00:19:21;1.90;;;1.17;;
60454;SDS011;54989;53.398;6.564;2022-08-19T00:21:50;1.05;;;0.93;;
60454;SDS011;54989;53.398;6.564;2022-08-19T00:24:18;0.80;;;0.80;;
60454;SDS011;54989;53.398;6.564;2022-08-19T00:26:46;1.17;;;1.10;;
60454;SDS011;54989;53.398;6.564;2022-08-19T00:29:15;0.85;;;0.85;;
60454;SDS011;54989;53.398;6.564;2022-08-19T00:34:13;1.15;;;1.00;;
60454;SDS011;54989;53.398;6.564;2022-08-19T00:36:41;0.82;;;0.82;;
60454;SDS011;54989;53.398;6.564;2022-08-19T00:39:09;1.50;;;1.00;;
60454;SDS011;54989;53.398;6.564;2022-08-19T00:41:38;0.82;;;0.82;;
60454;SDS011;54989;53.398;6.564;2022-08-19T00:44:13;0.98;;;0.98;;
60454;SDS011;54989;53.398;6.564;2022-08-19T00:46:55;1.08;;;1.08;;
60454;SDS011;54989;53.398;6.564;2022-08-19T00:49:31;1.10;;;1.00;;
60454;SDS011;54989;53.398;6.564;2022-08-19T00:52:04;1.23;;;1.00;;
60454;SDS011;54989;53.398;6.564;2022-08-19T00:54:39;1.05;;;0.90;;
60454;SDS011;54989;53.398;6.564;2022-08-19T00:57:09;0.93;;;0.93;;
60454;SDS011;54989;53.398;6.564;2022-08-19T00:59:40;0.90;;;0.90;;
60454;SDS011;54989;53.398;6.564;2022-08-19T01:02:27;1.02;;;0.85;;
60454;SDS011;54989;53.398;6.564;2022-08-19T01:04:56;0.80;;;0.80;;
60454;SDS011;54989;53.398;6.564;2022-08-19T01:07:24;1.67;;;0.90;;
60454;SDS011;54989;53.398;6.564;2022-08-19T01:09:52;1.27;;;1.00;;
60454;SDS011;54989;53.398;6.564;2022-08-19T01:12:20;0.80;;;0.80;;
60454;SDS011;54989;53.398;6.564;2022-08-19T01:14:48;1.00;;;1.00;;
60454;SDS011;54989;53.398;6.564;2022-08-19T01:17:16;0.90;;;0.90;;
60454;SDS011;54989;53.398;6.564;2022-08-19T01:19:45;1.30;;;0.88;;
60454;SDS011;54989;53.398;6.564;2022-08-19T01:22:16;0.80;;;0.80;;
60454;SDS011;54989;53.398;6.564;2022-08-19T01:24:57;0.90;;;0.90;;
60454;SDS011;54989;53.398;6.564;2022-08-19T01:27:25;1.15;;;1.05;;
60454;SDS011;54989;53.398;6.564;2022-08-19T01:29:56;1.10;;;1.10;;
60454;SDS011;54989;53.398;6.564;2022-08-19T01:32:24;1.80;;;1.08;;
60454;SDS011;54989;53.398;6.564;2022-08-19T01:35:00;1.00;;;1.00;;
60454;SDS011;54989;53.398;6.564;2022-08-19T01:37:28;0.93;;;0.93;;
60454;SDS011;54989;53.398;6.564;2022-08-19T01:39:57;1.00;;;1.00;;
60454;SDS011;54989;53.398;6.564;2022-08-19T01:42:25;0.68;;;0.68;;
60454;SDS011;54989;53.398;6.564;2022-08-19T01:44:56;0.88;;;0.88;;
60454;SDS011;54989;53.398;6.564;2022-08-19T01:47:23;0.90;;;0.90;;
60454;SDS011;54989;53.398;6.564;2022-08-19T01:49:51;0.93;;;0.88;;
60454;SDS011;54989;53.398;6.564;2022-08-19T01:52:19;1.20;;;1.10;;
60454;SDS011;54989;53.398;6.564;2022-08-19T01:54:46;1.35;;;1.25;;
60454;SDS011;54989;53.398;6.564;2022-08-19T01:57:14;1.33;;;1.23;;
60454;SDS011;54989;53.398;6.564;2022-08-19T01:59:42;1.10;;;1.00;;
60454;SDS011;54989;53.398;6.564;2022-08-19T02:02:11;0.90;;;0.90;;
60454;SDS011;54989;53.398;6.564;2022-08-19T02:04:38;1.00;;;0.90;;
60454;SDS011;54989;53.398;6.564;2022-08-19T02:07:06;0.88;;;0.88;;
60454;SDS011;54989;53.398;6.564;2022-08-19T02:09:35;0.85;;;0.85;;
60454;SDS011;54989;53.398;6.564;2022-08-19T02:12:03;1.25;;;0.90;;
60454;SDS011;54989;53.398;6.564;2022-08-19T02:14:33;0.90;;;0.90;;
60454;SDS011;54989;53.398;6.564;2022-08-19T02:17:02;0.93;;;0.93;;
60454;SDS011;54989;53.398;6.564;2022-08-19T02:19:30;1.10;;;1.00;;
60454;SDS011;54989;53.398;6.564;2022-08-19T02:21:59;0.70;;;0.70;;
60454;SDS011;54989;53.398;6.564;2022-08-19T02:24:27;0.93;;;0.93;;
60454;SDS011;54989;53.398;6.564;2022-08-19T02:26:54;0.80;;;0.80;;
60454;SDS011;54989;53.398;6.564;2022-08-19T02:29:22;1.23;;;0.90;;
60454;SDS011;54989;53.398;6.564;2022-08-19T02:31:50;1.15;;;0.93;;
60454;SDS011;54989;53.398;6.564;2022-08-19T02:34:18;1.00;;;1.00;;
60454;SDS011;54989;53.398;6.564;2022-08-19T02:36:45;1.00;;;1.00;;
60454;SDS011;54989;53.398;6.564;2022-08-19T02:39:17;0.85;;;0.82;;
60454;SDS011;54989;53.398;6.564;2022-08-19T02:41:45;0.82;;;0.82;;
60454;SDS011;54989;53.398;6.564;2022-08-19T02:44:12;0.80;;;0.80;;
60454;SDS011;54989;53.398;6.564;2022-08-19T02:46:57;0.98;;;0.88;;
60454;SDS011;54989;53.398;6.564;2022-08-19T02:49:24;1.00;;;1.00;;
60454;SDS011;54989;53.398;6.564;2022-08-19T02:51:52;0.98;;;0.98;;
60454;SDS011;54989;53.398;6.564;2022-08-19T02:54:19;1.05;;;1.00;;
60454;SDS011;54989;53.398;6.564;2022-08-19T02:56:48;0.75;;;0.75;;
60454;SDS011;54989;53.398;6.564;2022-08-19T02:59:15;0.70;;;0.70;;
60454;SDS011;54989;53.398;6.564;2022-08-19T03:04:14;1.00;;;0.90;;
60454;SDS011;54989;53.398;6.564;2022-08-19T03:06:43;0.82;;;0.82;;
60454;SDS011;54989;53.398;6.564;2022-08-19T03:09:11;0.90;;;0.90;;
60454;SDS011;54989;53.398;6.564;2022-08-19T03:11:40;1.10;;;1.00;;
60454;SDS011;54989;53.398;6.564;2022-08-19T03:14:08;1.17;;;0.85;;
60454;SDS011;54989;53.398;6.564;2022-08-19T03:16:41;0.80;;;0.80;;
60454;SDS011;54989;53.398;6.564;2022-08-19T03:19:15;0.90;;;0.90;;
60454;SDS011;54989;53.398;6.564;2022-08-19T03:21:44;0.80;;;0.80;;
60454;SDS011;54989;53.398;6.564;2022-08-19T03:24:13;1.48;;;0.80;;
60454;SDS011;54989;53.398;6.564;2022-08-19T03:26:45;1.10;;;1.00;;
60454;SDS011;54989;53.398;6.564;2022-08-19T03:29:16;1.33;;;1.08;;
60454;SDS011;54989;53.398;6.564;2022-08-19T03:34:31;1.20;;;1.20;;
60454;SDS011;54989;53.398;6.564;2022-08-19T03:37:07;1.10;;;1.00;;
60454;SDS011;54989;53.398;6.564;2022-08-19T03:39:38;0.90;;;0.90;;
60454;SDS011;54989;53.398;6.564;2022-08-19T03:42:07;1.15;;;1.00;;
60454;SDS011;54989;53.398;6.564;2022-08-19T03:44:55;0.90;;;0.90;;
60454;SDS011;54989;53.398;6.564;2022-08-19T03:47:23;1.02;;;1.02;;
60454;SDS011;54989;53.398;6.564;2022-08-19T03:49:50;2.05;;;1.00;;
60454;SDS011;54989;53.398;6.564;2022-08-19T03:52:18;1.00;;;1.00;;
60454;SDS011;54989;53.398;6.564;2022-08-19T03:54:46;1.30;;;0.80;;
60454;SDS011;54989;53.398;6.564;2022-08-19T03:57:13;1.10;;;1.00;;
60454;SDS011;54989;53.398;6.564;2022-08-19T03:59:41;0.90;;;0.90;;
60454;SDS011;54989;53.398;6.564;2022-08-19T04:02:09;1.15;;;1.10;;
60454;SDS011;54989;53.398;6.564;2022-08-19T04:04:39;1.17;;;1.17;;
60454;SDS011;54989;53.398;6.564;2022-08-19T04:07:11;0.75;;;0.75;;
60454;SDS011;54989;53.398;6.564;2022-08-19T04:09:42;0.80;;;0.80;;
60454;SDS011;54989;53.398;6.564;2022-08-19T04:12:10;1.00;;;1.00;;
60454;SDS011;54989;53.398;6.564;2022-08-19T04:14:38;1.08;;;0.90;;
60454;SDS011;54989;53.398;6.564;2022-08-19T04:17:06;1.02;;;1.02;;
60454;SDS011;54989;53.398;6.564;2022-08-19T04:19:34;0.82;;;0.82;;
60454;SDS011;54989;53.398;6.564;2022-08-19T04:22:02;0.88;;;0.88;;
60454;SDS011;54989;53.398;6.564;2022-08-19T04:24:31;1.15;;;0.70;;
60454;SDS011;54989;53.398;6.564;2022-08-19T04:27:01;0.82;;;0.82;;
60454;SDS011;54989;53.398;6.564;2022-08-19T04:29:29;1.15;;;1.05;;
60454;SDS011;54989;53.398;6.564;2022-08-19T04:31:57;0.95;;;0.73;;
60454;SDS011;54989;53.398;6.564;2022-08-19T04:34:36;0.90;;;0.90;;
60454;SDS011;54989;53.398;6.564;2022-08-19T04:37:27;0.80;;;0.80;;
60454;SDS011;54989;53.398;6.564;2022-08-19T04:40:01;0.80;;;0.80;;
60454;SDS011;54989;53.398;6.564;2022-08-19T04:42:49;0.88;;;0.80;;
60454;SDS011;54989;53.398;6.564;2022-08-19T04:45:16;0.75;;;0.75;;
60454;SDS011;54989;53.398;6.564;2022-08-19T04:47:44;0.80;;;0.80;;
60454;SDS011;54989;53.398;6.564;2022-08-19T04:50:25;1.85;;;0.73;;
60454;SDS011;54989;53.398;6.564;2022-08-19T04:52:53;0.73;;;0.70;;
60454;SDS011;54989;53.398;6.564;2022-08-19T04:55:22;1.02;;;0.88;;
60454;SDS011;54989;53.398;6.564;2022-08-19T04:57:53;0.68;;;0.68;;
60454;SDS011;54989;53.398;6.564;2022-08-19T05:00:21;0.70;;;0.70;;
60454;SDS011;54989;53.398;6.564;2022-08-19T05:02:49;0.70;;;0.70;;
60454;SDS011;54989;53.398;6.564;2022-08-19T05:05:16;0.80;;;0.80;;
60454;SDS011;54989;53.398;6.564;2022-08-19T05:07:44;0.82;;;0.70;;
60454;SDS011;54989;53.398;6.564;2022-08-19T05:10:12;0.73;;;0.73;;
60454;SDS011;54989;53.398;6.564;2022-08-19T05:12:39;0.60;;;0.60;;
60454;SDS011;54989;53.398;6.564;2022-08-19T05:15:07;0.55;;;0.55;;
60454;SDS011;54989;53.398;6.564;2022-08-19T05:17:35;0.70;;;0.70;;
60454;SDS011;54989;53.398;6.564;2022-08-19T05:20:05;0.60;;;0.60;;
60454;SDS011;54989;53.398;6.564;2022-08-19T05:22:54;0.80;;;0.80;;
60454;SDS011;54989;53.398;6.564;2022-08-19T05:25:22;0.60;;;0.60;;
60454;SDS011;54989;53.398;6.564;2022-08-19T05:27:51;0.60;;;0.60;;
60454;SDS011;54989;53.398;6.564;2022-08-19T05:30:18;0.63;;;0.63;;
60454;SDS011;54989;53.398;6.564;2022-08-19T05:33:06;0.52;;;0.52;;
60454;SDS011;54989;53.398;6.564;2022-08-19T05:35:38;0.60;;;0.60;;
60454;SDS011;54989;53.398;6.564;2022-08-19T05:38:07;0.65;;;0.60;;
60454;SDS011;54989;53.398;6.564;2022-08-19T05:40:35;0.50;;;0.50;;
60454;SDS011;54989;53.398;6.564;2022-08-19T05:43:05;0.70;;;0.70;;
60454;SDS011;54989;53.398;6.564;2022-08-19T05:45:37;0.70;;;0.70;;
60454;SDS011;54989;53.398;6.564;2022-08-19T05:48:06;0.70;;;0.70;;
60454;SDS011;54989;53.398;6.564;2022-08-19T05:50:35;0.98;;;0.60;;
60454;SDS011;54989;53.398;6.564;2022-08-19T05:53:02;0.93;;;0.60;;
60454;SDS011;54989;53.398;6.564;2022-08-19T05:55:31;1.20;;;0.70;;
60454;SDS011;54989;53.398;6.564;2022-08-19T05:57:58;0.68;;;0.68;;
60454;SDS011;54989;53.398;6.564;2022-08-19T06:00:28;0.82;;;0.82;;
60454;SDS011;54989;53.398;6.564;2022-08-19T06:02:57;0.55;;;0.55;;
60454;SDS011;54989;53.398;6.564;2022-08-19T06:08:17;0.65;;;0.65;;
60454;SDS011;54989;53.398;6.564;2022-08-19T06:10:45;1.75;;;0.80;;
60454;SDS011;54989;53.398;6.564;2022-08-19T06:13:12;0.98;;;0.80;;
60454;SDS011;54989;53.398;6.564;2022-08-19T06:15:41;1.02;;;0.70;;
60454;SDS011;54989;53.398;6.564;2022-08-19T06:18:10;0.73;;;0.73;;
60454;SDS011;54989;53.398;6.564;2022-08-19T06:20:38;0.63;;;0.63;;
60454;SDS011;54989;53.398;6.564;2022-08-19T06:23:21;1.00;;;0.90;;
60454;SDS011;54989;53.398;6.564;2022-08-19T06:25:50;0.88;;;0.70;;
60454;SDS011;54989;53.398;6.564;2022-08-19T06:28:17;0.77;;;0.77;;
60454;SDS011;54989;53.398;6.564;2022-08-19T06:30:45;0.82;;;0.82;;
60454;SDS011;54989;53.398;6.564;2022-08-19T06:33:13;0.77;;;0.77;;
60454;SDS011;54989;53.398;6.564;2022-08-19T06:35:40;0.90;;;0.75;;
60454;SDS011;54989;53.398;6.564;2022-08-19T06:38:08;0.90;;;0.90;;
60454;SDS011;54989;53.398;6.564;2022-08-19T06:40:36;0.80;;;0.77;;
60454;SDS011;54989;53.398;6.564;2022-08-19T06:43:04;1.20;;;0.70;;
60454;SDS011;54989;53.398;6.564;2022-08-19T06:45:36;1.17;;;1.05;;
60454;SDS011;54989;53.398;6.564;2022-08-19T06:48:05;0.90;;;0.90;;
60454;SDS011;54989;53.398;6.564;2022-08-19T06:50:33;0.80;;;0.80;;
60454;SDS011;54989;53.398;6.564;2022-08-19T06:53:05;0.90;;;0.90;;
60454;SDS011;54989;53.398;6.564;2022-08-19T06:55:32;1.13;;;1.02;;
60454;SDS011;54989;53.398;6.564;2022-08-19T06:58:02;1.33;;;1.00;;
60454;SDS011;54989;53.398;6.564;2022-08-19T07:00:31;0.80;;;0.80;;
60454;SDS011;54989;53.398;6.564;2022-08-19T07:02:59;0.98;;;0.98;;
60454;SDS011;54989;53.398;6.564;2022-08-19T07:05:37;0.88;;;0.88;;
60454;SDS011;54989;53.398;6.564;2022-08-19T07:08:11;0.98;;;0.98;;
60454;SDS011;54989;53.398;6.564;2022-08-19T07:10:42;1.10;;;1.00;;
60454;SDS011;54989;53.398;6.564;2022-08-19T07:13:11;2.42;;;0.98;;
60454;SDS011;54989;53.398;6.564;2022-08-19T07:15:39;0.88;;;0.88;;
60454;SDS011;54989;53.398;6.564;2022-08-19T07:18:06;0.82;;;0.82;;
60454;SDS011;54989;53.398;6.564;2022-08-19T07:23:07;0.88;;;0.85;;
60454;SDS011;54989;53.398;6.564;2022-08-19T07:25:41;0.95;;;0.95;;
60454;SDS011;54989;53.398;6.564;2022-08-19T07:28:09;0.88;;;0.88;;
60454;SDS011;54989;53.398;6.564;2022-08-19T07:30:50;1.00;;;1.00;;
60454;SDS011;54989;53.398;6.564;2022-08-19T07:33:18;0.80;;;0.80;;
60454;SDS011;54989;53.398;6.564;2022-08-19T07:35:46;1.05;;;1.05;;
60454;SDS011;54989;53.398;6.564;2022-08-19T07:38:14;1.02;;;1.00;;
60454;SDS011;54989;53.398;6.564;2022-08-19T07:40:43;0.90;;;0.90;;
60454;SDS011;54989;53.398;6.564;2022-08-19T07:43:13;1.10;;;1.10;;
60454;SDS011;54989;53.398;6.564;2022-08-19T07:48:11;1.10;;;1.00;;
60454;SDS011;54989;53.398;6.564;2022-08-19T07:50:39;1.83;;;1.00;;
60454;SDS011;54989;53.398;6.564;2022-08-19T07:53:06;1.02;;;1.00;;
60454;SDS011;54989;53.398;6.564;2022-08-19T07:55:34;1.08;;;1.08;;
60454;SDS011;54989;53.398;6.564;2022-08-19T07:58:09;1.15;;;1.15;;
60454;SDS011;54989;53.398;6.564;2022-08-19T08:00:41;1.67;;;1.08;;
60454;SDS011;54989;53.398;6.564;2022-08-19T08:03:10;1.30;;;1.17;;
60454;SDS011;54989;53.398;6.564;2022-08-19T08:05:38;1.10;;;1.10;;
60454;SDS011;54989;53.398;6.564;2022-08-19T08:08:23;1.30;;;1.30;;
60454;SDS011;54989;53.398;6.564;2022-08-19T08:11:16;1.10;;;1.10;;
60454;SDS011;54989;53.398;6.564;2022-08-19T08:13:46;1.40;;;1.23;;
60454;SDS011;54989;53.398;6.564;2022-08-19T08:16:30;1.27;;;1.27;;
60454;SDS011;54989;53.398;6.564;2022-08-19T08:19:05;1.00;;;1.00;;
60454;SDS011;54989;53.398;6.564;2022-08-19T08:21:51;1.73;;;1.08;;
60454;SDS011;54989;53.398;6.564;2022-08-19T08:24:23;1.40;;;1.30;;
60454;SDS011;54989;53.398;6.564;2022-08-19T08:26:54;1.00;;;1.00;;
60454;SDS011;54989;53.398;6.564;2022-08-19T08:29:23;1.25;;;1.15;;
60454;SDS011;54989;53.398;6.564;2022-08-19T08:32:00;1.75;;;1.25;;
60454;SDS011;54989;53.398;6.564;2022-08-19T08:34:39;1.50;;;1.40;;
60454;SDS011;54989;53.398;6.564;2022-08-19T08:37:07;1.60;;;1.50;;
60454;SDS011;54989;53.398;6.564;2022-08-19T08:39:35;2.08;;;1.50;;
60454;SDS011;54989;53.398;6.564;2022-08-19T08:45:13;1.50;;;1.40;;
60454;SDS011;54989;53.398;6.564;2022-08-19T08:47:44;1.45;;;1.35;;
60454;SDS011;54989;53.398;6.564;2022-08-19T08:50:21;1.80;;;1.40;;
60454;SDS011;54989;53.398;6.564;2022-08-19T08:52:56;1.60;;;1.50;;
60454;SDS011;54989;53.398;6.564;2022-08-19T08:55:26;1.40;;;1.30;;
60454;SDS011;54989;53.398;6.564;2022-08-19T08:58:04;1.65;;;1.45;;
60454;SDS011;54989;53.398;6.564;2022-08-19T09:00:42;1.55;;;1.45;;
60454;SDS011;54989;53.398;6.564;2022-08-19T09:03:17;2.00;;;1.50;;
60454;SDS011;54989;53.398;6.564;2022-08-19T09:11:37;1.70;;;1.60;;
60454;SDS011;54989;53.398;6.564;2022-08-19T09:14:36;1.52;;;1.20;;
60454;SDS011;54989;53.398;6.564;2022-08-19T09:17:17;1.45;;;1.45;;
60454;SDS011;54989;53.398;6.564;2022-08-19T09:19:51;1.52;;;1.42;;
60454;SDS011;54989;53.398;6.564;2022-08-19T09:22:21;1.50;;;1.40;;
60454;SDS011;54989;53.398;6.564;2022-08-19T09:24:53;1.70;;;1.60;;
60454;SDS011;54989;53.398;6.564;2022-08-19T09:27:21;2.08;;;1.42;;
60454;SDS011;54989;53.398;6.564;2022-08-19T09:30:18;1.75;;;1.65;;
60454;SDS011;54989;53.398;6.564;2022-08-19T09:32:51;1.90;;;1.80;;
60454;SDS011;54989;53.398;6.564;2022-08-19T09:35:21;2.00;;;1.80;;
60454;SDS011;54989;53.398;6.564;2022-08-19T09:37:50;1.80;;;1.70;;
60454;SDS011;54989;53.398;6.564;2022-08-19T09:40:26;1.67;;;1.58;;
60454;SDS011;54989;53.398;6.564;2022-08-19T09:45:24;1.80;;;1.70;;
60454;SDS011;54989;53.398;6.564;2022-08-19T09:47:51;1.80;;;1.70;;
60454;SDS011;54989;53.398;6.564;2022-08-19T09:50:21;1.90;;;1.80;;
60454;SDS011;54989;53.398;6.564;2022-08-19T09:52:50;2.17;;;2.03;;
60454;SDS011;54989;53.398;6.564;2022-08-19T09:55:23;1.90;;;1.80;;
60454;SDS011;54989;53.398;6.564;2022-08-19T09:58:00;2.03;;;1.92;;
60454;SDS011;54989;53.398;6.564;2022-08-19T10:00:29;2.03;;;1.90;;
60454;SDS011;54989;53.398;6.564;2022-08-19T10:02:58;1.90;;;1.80;;
60454;SDS011;54989;53.398;6.564;2022-08-19T10:05:26;2.05;;;1.95;;
60454;SDS011;54989;53.398;6.564;2022-08-19T10:08:15;1.73;;;1.63;;
60454;SDS011;54989;53.398;6.564;2022-08-19T10:10:46;1.98;;;1.88;;
60454;SDS011;54989;53.398;6.564;2022-08-19T10:13:16;2.15;;;2.00;;
60454;SDS011;54989;53.398;6.564;2022-08-19T10:15:50;2.10;;;1.98;;
60454;SDS011;54989;53.398;6.564;2022-08-19T10:20:50;2.08;;;1.90;;
60454;SDS011;54989;53.398;6.564;2022-08-19T10:23:20;2.13;;;2.03;;
60454;SDS011;54989;53.398;6.564;2022-08-19T10:25:48;2.25;;;2.00;;
60454;SDS011;54989;53.398;6.564;2022-08-19T10:28:16;2.20;;;2.10;;
60454;SDS011;54989;53.398;6.564;2022-08-19T10:30:45;2.33;;;2.13;;
60454;SDS011;54989;53.398;6.564;2022-08-19T10:33:14;2.35;;;2.20;;
60454;SDS011;54989;53.398;6.564;2022-08-19T10:36:09;2.50;;;2.30;;
60454;SDS011;54989;53.398;6.564;2022-08-19T10:38:45;2.30;;;2.20;;
60454;SDS011;54989;53.398;6.564;2022-08-19T10:41:22;2.10;;;2.00;;
60454;SDS011;54989;53.398;6.564;2022-08-19T10:43:52;2.20;;;2.10;;
60454;SDS011;54989;53.398;6.564;2022-08-19T10:46:22;2.53;;;2.30;;
60454;SDS011;54989;53.398;6.564;2022-08-19T10:48:51;2.50;;;2.40;;
60454;SDS011;54989;53.398;6.564;2022-08-19T10:51:20;2.65;;;2.28;;
60454;SDS011;54989;53.398;6.564;2022-08-19T10:54:24;2.20;;;2.10;;
60454;SDS011;54989;53.398;6.564;2022-08-19T10:57:15;2.70;;;2.50;;
60454;SDS011;54989;53.398;6.564;2022-08-19T10:59:43;2.60;;;2.40;;
60454;SDS011;54989;53.398;6.564;2022-08-19T11:02:11;2.08;;;1.98;;
60454;SDS011;54989;53.398;6.564;2022-08-19T11:04:39;2.75;;;2.55;;
60454;SDS011;54989;53.398;6.564;2022-08-19T11:07:07;2.50;;;2.30;;
60454;SDS011;54989;53.398;6.564;2022-08-19T11:09:38;2.17;;;2.08;;
60454;SDS011;54989;53.398;6.564;2022-08-19T11:12:08;2.50;;;2.30;;
60454;SDS011;54989;53.398;6.564;2022-08-19T11:14:37;2.63;;;2.53;;
60454;SDS011;54989;53.398;6.564;2022-08-19T11:17:04;2.58;;;2.47;;
60454;SDS011;54989;53.398;6.564;2022-08-19T11:19:32;3.08;;;2.88;;
60454;SDS011;54989;53.398;6.564;2022-08-19T11:22:00;2.70;;;2.50;;
60454;SDS011;54989;53.398;6.564;2022-08-19T11:24:29;2.80;;;2.60;;
60454;SDS011;54989;53.398;6.564;2022-08-19T11:27:00;3.10;;;2.90;;
60454;SDS011;54989;53.398;6.564;2022-08-19T11:29:32;2.70;;;2.50;;
60454;SDS011;54989;53.398;6.564;2022-08-19T11:32:03;2.50;;;2.38;;
60454;SDS011;54989;53.398;6.564;2022-08-19T11:34:36;2.60;;;2.47;;
60454;SDS011;54989;53.398;6.564;2022-08-19T11:37:04;2.40;;;2.30;;
60454;SDS011;54989;53.398;6.564;2022-08-19T11:39:32;2.95;;;2.78;;
60454;SDS011;54989;53.398;6.564;2022-08-19T11:42:00;3.10;;;2.90;;
60454;SDS011;54989;53.398;6.564;2022-08-19T11:44:29;2.90;;;2.70;;
60454;SDS011;54989;53.398;6.564;2022-08-19T11:46:57;3.42;;;3.22;;
60454;SDS011;54989;53.398;6.564;2022-08-19T11:49:34;3.10;;;2.90;;
60454;SDS011;54989;53.398;6.564;2022-08-19T11:52:02;3.22;;;3.03;;
60454;SDS011;54989;53.398;6.564;2022-08-19T11:54:30;3.03;;;2.83;;
60454;SDS011;54989;53.398;6.564;2022-08-19T11:56:57;2.90;;;2.70;;
60454;SDS011;54989;53.398;6.564;2022-08-19T11:59:25;3.03;;;2.83;;
60454;SDS011;54989;53.398;6.564;2022-08-19T12:01:55;2.97;;;2.77;;
60454;SDS011;54989;53.398;6.564;2022-08-19T12:04:23;3.40;;;3.20;;
60454;SDS011;54989;53.398;6.564;2022-08-19T12:06:51;3.15;;;2.95;;
60454;SDS011;54989;53.398;6.564;2022-08-19T12:09:19;3.10;;;2.90;;
60454;SDS011;54989;53.398;6.564;2022-08-19T12:11:48;3.20;;;3.00;;
60454;SDS011;54989;53.398;6.564;2022-08-19T12:14:17;3.38;;;3.10;;
60454;SDS011;54989;53.398;6.564;2022-08-19T12:16:46;3.00;;;2.80;;
60454;SDS011;54989;53.398;6.564;2022-08-19T12:19:18;3.08;;;2.90;;
60454;SDS011;54989;53.398;6.564;2022-08-19T12:21:48;3.33;;;3.10;;
60454;SDS011;54989;53.398;6.564;2022-08-19T12:24:16;3.22;;;3.03;;
60454;SDS011;54989;53.398;6.564;2022-08-19T12:26:50;3.25;;;3.03;;
60454;SDS011;54989;53.398;6.564;2022-08-19T12:29:19;3.40;;;3.20;;
60454;SDS011;54989;53.398;6.564;2022-08-19T12:31:50;3.25;;;3.05;;
60454;SDS011;54989;53.398;6.564;2022-08-19T12:34:17;3.42;;;3.22;;
60454;SDS011;54989;53.398;6.564;2022-08-19T12:36:46;3.20;;;3.00;;
60454;SDS011;54989;53.398;6.564;2022-08-19T12:39:16;3.25;;;2.95;;
60454;SDS011;54989;53.398;6.564;2022-08-19T12:41:43;3.10;;;2.90;;
60454;SDS011;54989;53.398;6.564;2022-08-19T12:44:21;3.17;;;2.97;;
60454;SDS011;54989;53.398;6.564;2022-08-19T12:46:58;3.33;;;3.13;;
60454;SDS011;54989;53.398;6.564;2022-08-19T12:49:29;3.80;;;3.50;;
60454;SDS011;54989;53.398;6.564;2022-08-19T12:52:20;3.70;;;3.50;;
60454;SDS011;54989;53.398;6.564;2022-08-19T12:54:49;3.22;;;3.03;;
60454;SDS011;54989;53.398;6.564;2022-08-19T12:57:20;3.63;;;3.40;;
60454;SDS011;54989;53.398;6.564;2022-08-19T13:00:20;3.75;;;3.45;;
60454;SDS011;54989;53.398;6.564;2022-08-19T13:02:49;3.40;;;3.20;;
60454;SDS011;54989;53.398;6.564;2022-08-19T13:05:18;4.07;;;3.78;;
60454;SDS011;54989;53.398;6.564;2022-08-19T13:07:54;3.75;;;3.45;;
60454;SDS011;54989;53.398;6.564;2022-08-19T13:10:24;4.47;;;4.18;;
60454;SDS011;54989;53.398;6.564;2022-08-19T13:12:54;4.13;;;3.83;;
60454;SDS011;54989;53.398;6.564;2022-08-19T13:15:23;4.00;;;3.70;;
60454;SDS011;54989;53.398;6.564;2022-08-19T13:17:51;3.80;;;3.50;;
60454;SDS011;54989;53.398;6.564;2022-08-19T13:20:20;3.95;;;3.65;;
60454;SDS011;54989;53.398;6.564;2022-08-19T13:22:49;4.80;;;4.28;;
60454;SDS011;54989;53.398;6.564;2022-08-19T13:25:17;3.85;;;3.65;;
60454;SDS011;54989;53.398;6.564;2022-08-19T13:27:46;4.15;;;3.85;;
60454;SDS011;54989;53.398;6.564;2022-08-19T13:30:16;4.45;;;4.05;;
60454;SDS011;54989;53.398;6.564;2022-08-19T13:33:04;3.70;;;3.40;;
60454;SDS011;54989;53.398;6.564;2022-08-19T13:35:42;4.32;;;4.00;;
60454;SDS011;54989;53.398;6.564;2022-08-19T13:38:10;3.67;;;3.38;;
60454;SDS011;54989;53.398;6.564;2022-08-19T13:40:39;3.50;;;3.30;;
60454;SDS011;54989;53.398;6.564;2022-08-19T13:43:07;4.60;;;3.55;;
60454;SDS011;54989;53.398;6.564;2022-08-19T13:45:51;4.57;;;4.00;;
60454;SDS011;54989;53.398;6.564;2022-08-19T13:48:23;3.90;;;3.60;;
60454;SDS011;54989;53.398;6.564;2022-08-19T13:50:53;3.90;;;3.60;;
60454;SDS011;54989;53.398;6.564;2022-08-19T13:53:21;3.83;;;3.53;;
60454;SDS011;54989;53.398;6.564;2022-08-19T13:55:50;3.80;;;3.50;;
60454;SDS011;54989;53.398;6.564;2022-08-19T13:58:17;3.78;;;3.47;;
60454;SDS011;54989;53.398;6.564;2022-08-19T14:00:45;3.75;;;3.53;;
60454;SDS011;54989;53.398;6.564;2022-08-19T14:03:13;3.90;;;3.60;;
60454;SDS011;54989;53.398;6.564;2022-08-19T14:05:41;4.70;;;3.63;;
60454;SDS011;54989;53.398;6.564;2022-08-19T14:08:08;4.10;;;3.70;;
60454;SDS011;54989;53.398;6.564;2022-08-19T14:10:36;4.00;;;3.60;;
60454;SDS011;54989;53.398;6.564;2022-08-19T14:13:03;4.00;;;3.70;;
60454;SDS011;54989;53.398;6.564;2022-08-19T14:15:31;3.60;;;3.30;;
60454;SDS011;54989;53.398;6.564;2022-08-19T14:17:58;3.90;;;3.60;;
60454;SDS011;54989;53.398;6.564;2022-08-19T14:20:26;3.90;;;3.70;;
60454;SDS011;54989;53.398;6.564;2022-08-19T14:22:54;4.00;;;3.70;;
60454;SDS011;54989;53.398;6.564;2022-08-19T14:25:23;3.40;;;3.20;;
60454;SDS011;54989;53.398;6.564;2022-08-19T14:27:53;3.90;;;3.50;;
60454;SDS011;54989;53.398;6.564;2022-08-19T14:30:24;4.18;;;3.28;;
60454;SDS011;54989;53.398;6.564;2022-08-19T14:32:56;4.22;;;3.47;;
60454;SDS011;54989;53.398;6.564;2022-08-19T14:35:26;3.80;;;3.50;;
60454;SDS011;54989;53.398;6.564;2022-08-19T14:37:54;4.30;;;3.90;;
60454;SDS011;54989;53.398;6.564;2022-08-19T14:40:26;3.60;;;3.30;;
60454;SDS011;54989;53.398;6.564;2022-08-19T14:42:56;3.30;;;3.10;;
60454;SDS011;54989;53.398;6.564;2022-08-19T14:45:28;3.30;;;3.10;;
60454;SDS011;54989;53.398;6.564;2022-08-19T14:47:56;3.58;;;3.28;;
60454;SDS011;54989;53.398;6.564;2022-08-19T14:50:23;3.50;;;3.20;;
60454;SDS011;54989;53.398;6.564;2022-08-19T14:52:56;3.55;;;3.33;;
60454;SDS011;54989;53.398;6.564;2022-08-19T14:55:42;3.50;;;3.30;;
60454;SDS011;54989;53.398;6.564;2022-08-19T14:58:11;4.20;;;3.10;;
60454;SDS011;54989;53.398;6.564;2022-08-19T15:00:57;3.55;;;3.33;;
60454;SDS011;54989;53.398;6.564;2022-08-19T15:03:28;3.47;;;3.28;;
60454;SDS011;54989;53.398;6.564;2022-08-19T15:05:56;3.38;;;3.17;;
60454;SDS011;54989;53.398;6.564;2022-08-19T15:08:24;3.88;;;3.50;;
60454;SDS011;54989;53.398;6.564;2022-08-19T15:10:52;3.72;;;3.38;;
60454;SDS011;54989;53.398;6.564;2022-08-19T15:13:20;3.80;;;3.38;;
60454;SDS011;54989;53.398;6.564;2022-08-19T15:15:48;3.25;;;3.05;;
60454;SDS011;54989;53.398;6.564;2022-08-19T15:18:15;3.47;;;3.17;;
60454;SDS011;54989;53.398;6.564;2022-08-19T15:20:43;3.40;;;3.20;;
60454;SDS011;54989;53.398;6.564;2022-08-19T15:23:16;3.33;;;3.10;;
60454;SDS011;54989;53.398;6.564;2022-08-19T15:25:44;3.45;;;3.25;;
60454;SDS011;54989;53.398;6.564;2022-08-19T15:28:11;3.70;;;3.40;;
60454;SDS011;54989;53.398;6.564;2022-08-19T15:30:39;3.55;;;3.25;;
60454;SDS011;54989;53.398;6.564;2022-08-19T15:33:07;3.30;;;3.03;;
60454;SDS011;54989;53.398;6.564;2022-08-19T15:35:41;3.40;;;3.20;;
60454;SDS011;54989;53.398;6.564;2022-08-19T15:38:09;3.33;;;3.13;;
60454;SDS011;54989;53.398;6.564;2022-08-19T15:40:39;3.60;;;3.40;;